Аэропорт: Мурманск. Мурманск

ICAO: ULMM

METAR:
2019-09-21 16:00:00
ULMM 211600Z 31001MPS 9999 BKN020CB 03/00 Q1006 R31/190065 NOSIG RMK QFE747
METAR:
2019-09-21 13:58:00
TAF ULMM 211358Z 2115/2215 32003G09MPS 4000 -SHRASN BR BKN011CB TEMPO 2115/2122 01003G09MPS 0500 +SHSNRA BKN003 BKN011CB TEMPO 2122/2205 01003MPS 3100 -SHSNRA SCT006 BKN011CB TEMPO 2205/2215 01003G09MPS 3100 -SHSNRA BR BKN012CB